Terminal Aerodrome Forecast
Issued by NWS

Home | Current Version | Previous Version | Text Only | Print | Product List | Glossary On
Versions: 1 2 3 4 5 6 7 8 9 10 11 12 13
000
FTUS43 KEAX 220500
TAFMKC
TAF
KMKC 220520Z 2206/2306 20012KT P6SM SCT130 SCT250
     FM221300 20009KT P6SM FEW070 SCT250
     FM221600 21013KT P6SM SCT070 SCT150
     FM230000 17008KT P6SM SCT060 SCT120=

USA.gov is the U.S. government's official web portal to all federal, state and local government web resources and services.